Time;durP1;ratioP1;P1;durP2;ratioP2;P2;SDS_P1;SDS_P2;PMS_P1;PMS_P2;Temp;Humidity;BMP_temperature;BMP_pressure;BME280_temperature;BME280_humidity;BME280_pressure;Samples;Min_cycle;Max_cycle;Signal;HPM_P1;HPM_P2
2024/04/04 00:00:14;;;;;;;;;;;14.70;99.90;;;;;;5084837;28;19912;-48
2024/04/04 00:02:40;;;;;;;;;;;14.70;99.90;;;;;;5086855;28;19915;-49
2024/04/04 00:05:05;;;;;;;;;;;14.70;99.90;;;;;;5085201;28;19919;-49
2024/04/04 00:07:31;;;;;;;;;;;14.70;99.90;;;;;;5085181;28;19912;-50
2024/04/04 00:10:00;;;;;;;;;;;14.70;99.90;;;;;;5085167;28;20284;-49
2024/04/04 00:12:26;;;;;;;;;;;14.70;99.90;;;;;;5088663;28;20452;-49
2024/04/04 00:14:52;;;;;;;;;;;14.70;99.90;;;;;;5085239;28;19912;-48
2024/04/04 00:17:17;;;;;;;;;;;14.70;99.90;;;;;;5089254;28;19997;-49
2024/04/04 00:19:43;;;;;;;;;;;14.70;99.90;;;;;;5085560;28;20364;-49
2024/04/04 00:22:09;;;;;;;;;;;14.70;99.90;;;;;;5092066;28;20375;-48
2024/04/04 00:24:34;;;;;;;;;;;14.70;99.90;;;;;;5089652;28;20016;-49
2024/04/04 00:27:00;;;;;;;;;;;14.70;99.90;;;;;;5090390;28;20282;-49
2024/04/04 00:29:25;;;;;;;;;;;14.70;99.90;;;;;;5067361;28;20039;-48
2024/04/04 00:31:51;;;;;;;;;;;14.70;99.90;;;;;;5087939;28;19912;-48
2024/04/04 00:34:16;;;;;;;;;;;14.70;99.90;;;;;;5089997;28;20336;-49
2024/04/04 00:36:42;;;;;;;;;;;14.70;99.90;;;;;;5096222;28;19929;-49
2024/04/04 00:39:08;;;;;;;;;;;14.70;99.90;;;;;;5095648;28;19908;-49
2024/04/04 00:41:33;;;;;;;;;;;14.70;99.90;;;;;;5097179;28;20448;-49
2024/04/04 00:43:59;;;;;;;;;;;14.70;99.90;;;;;;5096030;28;19912;-49
2024/04/04 00:46:25;;;;;;;;;;;14.70;99.90;;;;;;5097772;28;19942;-48
2024/04/04 00:48:51;;;;;;;;;;;14.70;99.90;;;;;;5096500;28;19916;-49
2024/04/04 00:51:17;;;;;;;;;;;14.70;99.90;;;;;;5097642;28;19934;-49
2024/04/04 00:53:42;;;;;;;;;;;14.70;99.90;;;;;;5097808;28;19916;-49
2024/04/04 00:56:08;;;;;;;;;;;14.70;99.90;;;;;;5078449;28;19916;-48
2024/04/04 00:58:35;;;;;;;;;;;14.70;99.90;;;;;;5077746;28;19971;-49
2024/04/04 01:01:01;;;;;;;;;;;14.70;99.90;;;;;;5077466;28;19912;-49
2024/04/04 01:03:26;;;;;;;;;;;14.70;99.90;;;;;;5072436;28;19913;-51
2024/04/04 01:05:52;;;;;;;;;;;14.70;99.90;;;;;;5064044;28;19970;-49
2024/04/04 01:08:18;;;;;;;;;;;14.70;99.90;;;;;;5075993;28;19912;-49
2024/04/04 01:10:44;;;;;;;;;;;14.70;99.90;;;;;;5077506;28;19909;-50
2024/04/04 01:13:09;;;;;;;;;;;14.70;99.90;;;;;;5079172;28;19915;-49
2024/04/04 01:15:35;;;;;;;;;;;14.70;99.90;;;;;;5078408;28;20288;-49
2024/04/04 01:18:01;;;;;;;;;;;14.70;99.90;;;;;;5079070;28;19942;-53
2024/04/04 01:20:28;;;;;;;;;;;14.70;99.90;;;;;;5077747;28;21620;-51
2024/04/04 01:22:53;;;;;;;;;;;14.70;99.90;;;;;;5083495;28;19912;-52
2024/04/04 01:25:19;;;;;;;;;;;14.70;99.90;;;;;;5076419;28;19909;-51
2024/04/04 01:27:49;;;;;;;;;;;14.70;99.90;;;;;;5083808;28;19961;-51
2024/04/04 01:30:15;;;;;;;;;;;14.70;99.90;;;;;;5080521;28;20429;-51
2024/04/04 01:32:41;;;;;;;;;;;14.70;99.90;;;;;;5084599;28;19912;-52
2024/04/04 01:35:06;;;;;;;;;;;14.70;99.90;;;;;;5081448;28;19909;-53
2024/04/04 01:37:32;;;;;;;;;;;14.70;99.90;;;;;;5086083;28;19909;-52
2024/04/04 01:39:57;;;;;;;;;;;14.70;99.90;;;;;;5081352;28;19967;-53
2024/04/04 01:42:23;;;;;;;;;;;14.70;99.90;;;;;;5083242;28;20521;-52
2024/04/04 01:44:48;;;;;;;;;;;14.70;99.90;;;;;;5083260;28;19946;-53
2024/04/04 01:47:14;;;;;;;;;;;14.70;99.90;;;;;;5083404;28;19912;-51
2024/04/04 01:49:40;;;;;;;;;;;14.70;99.90;;;;;;5076613;28;20312;-52
2024/04/04 01:52:05;;;;;;;;;;;14.70;99.90;;;;;;5078063;28;20352;-52
2024/04/04 01:54:31;;;;;;;;;;;14.70;99.90;;;;;;5084270;28;20394;-52
2024/04/04 01:56:56;;;;;;;;;;;14.70;99.90;;;;;;5079365;28;19912;-53
2024/04/04 01:59:22;;;;;;;;;;;14.70;99.90;;;;;;5081471;28;20391;-52
2024/04/04 02:01:47;;;;;;;;;;;14.70;99.90;;;;;;5080580;28;19908;-53
2024/04/04 02:04:13;;;;;;;;;;;14.80;99.90;;;;;;5079094;28;20277;-51
2024/04/04 02:06:39;;;;;;;;;;;14.80;99.90;;;;;;5082153;28;19917;-52
2024/04/04 02:09:04;;;;;;;;;;;14.70;99.90;;;;;;5084695;28;20276;-53
2024/04/04 02:11:30;;;;;;;;;;;14.70;99.90;;;;;;5075847;28;20387;-52
2024/04/04 02:13:56;;;;;;;;;;;14.70;99.90;;;;;;5077584;28;20317;-53
2024/04/04 02:16:23;;;;;;;;;;;14.70;99.90;;;;;;5079031;28;19908;-52
2024/04/04 02:18:50;;;;;;;;;;;14.70;99.90;;;;;;5087875;28;19934;-52
2024/04/04 02:21:15;;;;;;;;;;;14.70;99.90;;;;;;5088280;28;19909;-49
2024/04/04 02:23:41;;;;;;;;;;;14.70;99.90;;;;;;5089859;28;19909;-49
2024/04/04 02:26:06;;;;;;;;;;;14.70;99.90;;;;;;5089204;28;19912;-50
2024/04/04 02:28:32;;;;;;;;;;;14.70;99.90;;;;;;5080169;28;19912;-48
2024/04/04 02:30:57;;;;;;;;;;;14.70;99.90;;;;;;5089745;28;19937;-49
2024/04/04 02:33:23;;;;;;;;;;;14.60;99.90;;;;;;5090821;28;19941;-49
2024/04/04 02:35:55;;;;;;;;;;;14.60;99.90;;;;;;5089519;28;19923;-49
2024/04/04 02:38:22;;;;;;;;;;;14.60;99.90;;;;;;5072479;28;19912;-49
2024/04/04 02:40:47;;;;;;;;;;;14.60;99.90;;;;;;5090359;28;19912;-49
2024/04/04 02:43:14;;;;;;;;;;;14.60;99.90;;;;;;5093848;28;20393;-49
2024/04/04 02:45:40;;;;;;;;;;;14.60;99.90;;;;;;5083622;28;19931;-49
2024/04/04 02:48:05;;;;;;;;;;;14.60;99.90;;;;;;5093352;28;19948;-49
2024/04/04 02:50:31;;;;;;;;;;;14.60;99.90;;;;;;5091750;28;19916;-49
2024/04/04 02:52:56;;;;;;;;;;;14.60;99.90;;;;;;5093977;28;19908;-49
2024/04/04 02:55:22;;;;;;;;;;;14.60;99.90;;;;;;5081288;28;19915;-48
2024/04/04 02:57:47;;;;;;;;;;;14.60;99.90;;;;;;5094438;28;19908;-49
2024/04/04 03:00:13;;;;;;;;;;;14.60;99.90;;;;;;5094780;28;19909;-50
2024/04/04 03:02:38;;;;;;;;;;;14.60;99.90;;;;;;5095055;28;19912;-49
2024/04/04 03:05:04;;;;;;;;;;;14.70;99.90;;;;;;5090267;28;19912;-50
2024/04/04 03:07:30;;;;;;;;;;;14.60;99.90;;;;;;5075380;28;19997;-48
2024/04/04 03:09:55;;;;;;;;;;;14.60;99.90;;;;;;5074978;28;19909;-49
2024/04/04 03:12:21;;;;;;;;;;;14.60;99.90;;;;;;5067968;28;19940;-48
2024/04/04 03:14:46;;;;;;;;;;;14.60;99.90;;;;;;5071691;28;19958;-50
2024/04/04 03:17:12;;;;;;;;;;;14.60;99.90;;;;;;5075938;28;19912;-49
2024/04/04 03:19:37;;;;;;;;;;;14.70;99.90;;;;;;5076315;28;19920;-49
2024/04/04 03:22:03;;;;;;;;;;;14.70;99.90;;;;;;5077174;28;19923;-49
2024/04/04 03:24:28;;;;;;;;;;;14.70;99.90;;;;;;5080425;28;19912;-49
2024/04/04 03:26:54;;;;;;;;;;;14.60;99.90;;;;;;5077618;28;19916;-48
2024/04/04 03:29:19;;;;;;;;;;;14.70;99.90;;;;;;5081174;28;19912;-49
2024/04/04 03:31:45;;;;;;;;;;;14.60;99.90;;;;;;5078008;28;19962;-49
2024/04/04 03:34:10;;;;;;;;;;;14.70;99.90;;;;;;5082283;28;19961;-53
2024/04/04 03:36:36;;;;;;;;;;;14.70;99.90;;;;;;5078833;28;19999;-53
2024/04/04 03:39:01;;;;;;;;;;;14.70;99.90;;;;;;5082675;28;19930;-53
2024/04/04 03:41:27;;;;;;;;;;;14.70;99.90;;;;;;5079098;28;19950;-53
2024/04/04 03:43:52;;;;;;;;;;;14.70;99.90;;;;;;5083560;28;19912;-50
2024/04/04 03:46:18;;;;;;;;;;;14.70;99.90;;;;;;5079599;28;19915;-53
2024/04/04 03:48:44;;;;;;;;;;;14.70;99.90;;;;;;5083879;28;19955;-50
2024/04/04 03:51:10;;;;;;;;;;;14.70;99.90;;;;;;5079753;28;19909;-51
2024/04/04 03:53:35;;;;;;;;;;;14.70;99.90;;;;;;5080265;28;19908;-50
2024/04/04 03:56:01;;;;;;;;;;;14.60;99.90;;;;;;5090777;28;19912;-50
2024/04/04 03:58:27;;;;;;;;;;;14.70;99.90;;;;;;5091243;28;19908;-50
2024/04/04 04:00:52;;;;;;;;;;;14.60;99.90;;;;;;5091736;28;19908;-53
2024/04/04 04:03:18;;;;;;;;;;;14.70;99.90;;;;;;5092726;28;19916;-49
2024/04/04 04:05:44;;;;;;;;;;;14.70;99.90;;;;;;5091009;28;19915;-52
2024/04/04 04:08:10;;;;;;;;;;;14.70;99.90;;;;;;5090627;28;19966;-52
2024/04/04 04:10:37;;;;;;;;;;;14.70;99.90;;;;;;5092239;28;19908;-53
2024/04/04 04:13:03;;;;;;;;;;;14.70;99.90;;;;;;5092988;28;19939;-52
2024/04/04 04:15:29;;;;;;;;;;;14.70;99.90;;;;;;5093390;28;19919;-52
2024/04/04 04:17:54;;;;;;;;;;;14.70;99.90;;;;;;5093378;28;20008;-53
2024/04/04 04:23:04;;;;;;;;;;;14.70;99.90;;;;;;5094056;28;19923;-52
2024/04/04 04:25:30;;;;;;;;;;;14.70;99.90;;;;;;5096592;28;19909;-52
2024/04/04 04:27:55;;;;;;;;;;;14.70;99.90;;;;;;5095108;28;19951;-54
2024/04/04 04:30:21;;;;;;;;;;;14.70;99.90;;;;;;5097393;28;20436;-52
2024/04/04 04:32:47;;;;;;;;;;;14.70;99.90;;;;;;5083645;28;19920;-52
2024/04/04 04:35:12;;;;;;;;;;;14.70;99.90;;;;;;5097396;28;19939;-53
2024/04/04 04:37:38;;;;;;;;;;;14.70;99.90;;;;;;5097060;28;19913;-53
2024/04/04 04:40:05;;;;;;;;;;;14.70;99.90;;;;;;5097885;28;19915;-52
2024/04/04 04:42:30;;;;;;;;;;;14.70;99.90;;;;;;5098020;28;19943;-52
2024/04/04 04:44:56;;;;;;;;;;;14.70;99.90;;;;;;5088118;28;19908;-50
2024/04/04 04:47:21;;;;;;;;;;;14.70;99.90;;;;;;5078637;28;19914;-51
2024/04/04 04:49:49;;;;;;;;;;;14.70;99.90;;;;;;5077877;28;19915;-50
2024/04/04 04:52:17;;;;;;;;;;;14.70;99.90;;;;;;5078765;28;19919;-50
2024/04/04 04:54:42;;;;;;;;;;;14.70;99.90;;;;;;5078807;28;20378;-48
2024/04/04 04:57:08;;;;;;;;;;;14.70;99.90;;;;;;5078921;28;20007;-49
2024/04/04 04:59:34;;;;;;;;;;;14.70;99.90;;;;;;5078990;28;20227;-50
2024/04/04 05:01:59;;;;;;;;;;;14.70;99.90;;;;;;5070466;28;19912;-49
2024/04/04 05:04:25;;;;;;;;;;;14.70;99.90;;;;;;5078747;28;20265;-49
2024/04/04 05:06:51;;;;;;;;;;;14.70;99.90;;;;;;5070786;28;19909;-49
2024/04/04 05:09:17;;;;;;;;;;;14.70;99.90;;;;;;5078671;28;19912;-51
2024/04/04 05:11:43;;;;;;;;;;;14.80;99.90;;;;;;5085360;28;20284;-50
2024/04/04 05:14:08;;;;;;;;;;;14.80;99.90;;;;;;5077069;28;20004;-49
2024/04/04 05:16:35;;;;;;;;;;;14.70;99.90;;;;;;5076783;28;19989;-50
2024/04/04 05:19:00;;;;;;;;;;;14.70;99.90;;;;;;5066374;28;19927;-50
2024/04/04 05:21:26;;;;;;;;;;;14.70;99.90;;;;;;5071415;28;20288;-51
2024/04/04 05:23:51;;;;;;;;;;;14.70;99.90;;;;;;5068921;28;19908;-49
2024/04/04 05:26:17;;;;;;;;;;;14.70;99.90;;;;;;5074935;28;19908;-49
2024/04/04 05:28:42;;;;;;;;;;;14.70;99.90;;;;;;5066117;28;19973;-49
2024/04/04 05:31:08;;;;;;;;;;;14.70;99.90;;;;;;5068280;28;19973;-50
2024/04/04 05:33:33;;;;;;;;;;;14.70;99.90;;;;;;5072272;28;19913;-53
2024/04/04 05:35:59;;;;;;;;;;;14.70;99.90;;;;;;5075944;28;19919;-53
2024/04/04 05:38:24;;;;;;;;;;;14.70;99.90;;;;;;5071104;28;19912;-51
2024/04/04 05:40:50;;;;;;;;;;;14.70;99.90;;;;;;5072929;28;19913;-51
2024/04/04 05:43:15;;;;;;;;;;;14.70;99.90;;;;;;5072908;28;19915;-51
2024/04/04 05:45:41;;;;;;;;;;;14.80;99.90;;;;;;5077387;28;19920;-49
2024/04/04 05:48:06;;;;;;;;;;;14.70;99.90;;;;;;5082958;28;19924;-50
2024/04/04 05:50:34;;;;;;;;;;;14.70;99.90;;;;;;5087830;28;19962;-49
2024/04/04 05:53:00;;;;;;;;;;;14.70;99.90;;;;;;5090456;28;19915;-50
2024/04/04 05:55:25;;;;;;;;;;;14.70;99.90;;;;;;5088117;28;19909;-51
2024/04/04 05:57:51;;;;;;;;;;;14.70;99.90;;;;;;5091324;28;19958;-50
2024/04/04 06:00:16;;;;;;;;;;;14.70;99.90;;;;;;5088951;28;19959;-53
2024/04/04 06:02:42;;;;;;;;;;;14.70;99.90;;;;;;5086920;28;20019;-52
2024/04/04 06:05:07;;;;;;;;;;;14.70;99.90;;;;;;5074651;28;19912;-51
2024/04/04 06:07:33;;;;;;;;;;;14.70;99.90;;;;;;5077735;28;20287;-51
2024/04/04 06:09:59;;;;;;;;;;;14.70;99.90;;;;;;5083843;28;19935;-50
2024/04/04 06:12:24;;;;;;;;;;;14.70;99.90;;;;;;5084045;28;20000;-50
2024/04/04 06:14:50;;;;;;;;;;;14.70;99.90;;;;;;5083821;28;19912;-49
2024/04/04 06:17:16;;;;;;;;;;;14.70;99.90;;;;;;5084975;28;19974;-50
2024/04/04 06:19:41;;;;;;;;;;;14.70;99.90;;;;;;5081473;28;19913;-51
2024/04/04 06:22:07;;;;;;;;;;;14.70;99.90;;;;;;5081578;28;19916;-49
2024/04/04 06:24:33;;;;;;;;;;;14.70;99.90;;;;;;5080194;28;19947;-51
2024/04/04 06:26:58;;;;;;;;;;;14.70;99.90;;;;;;5086735;28;20006;-51
2024/04/04 06:29:24;;;;;;;;;;;14.70;99.90;;;;;;5088332;28;20283;-51
2024/04/04 06:31:50;;;;;;;;;;;14.80;99.90;;;;;;5088074;28;19923;-51
2024/04/04 06:34:16;;;;;;;;;;;14.80;99.90;;;;;;5087902;28;19912;-50
2024/04/04 06:36:44;;;;;;;;;;;14.80;99.90;;;;;;5071394;28;19921;-52
2024/04/04 06:39:12;;;;;;;;;;;14.80;99.90;;;;;;5072758;28;19916;-51
2024/04/04 06:41:37;;;;;;;;;;;14.80;99.90;;;;;;5069550;28;19920;-52
2024/04/04 06:44:03;;;;;;;;;;;14.80;99.90;;;;;;5071364;28;20583;-52
2024/04/04 06:46:29;;;;;;;;;;;14.80;99.90;;;;;;5071339;28;19917;-51
2024/04/04 06:48:54;;;;;;;;;;;14.80;99.90;;;;;;5071220;28;19971;-49
2024/04/04 06:51:21;;;;;;;;;;;14.80;99.90;;;;;;5067027;28;19913;-51
2024/04/04 06:53:46;;;;;;;;;;;14.80;99.90;;;;;;5068802;28;19909;-51
2024/04/04 06:56:12;;;;;;;;;;;14.70;99.90;;;;;;5067431;28;19912;-51
2024/04/04 06:58:38;;;;;;;;;;;14.70;99.90;;;;;;5069732;28;20395;-51
2024/04/04 07:01:03;;;;;;;;;;;14.80;99.90;;;;;;5068928;28;19919;-52
2024/04/04 07:03:29;;;;;;;;;;;14.70;99.90;;;;;;5065659;28;19971;-51
2024/04/04 07:05:54;;;;;;;;;;;14.70;99.90;;;;;;5073892;28;20453;-50
2024/04/04 07:08:20;;;;;;;;;;;14.70;99.90;;;;;;5071459;28;19913;-49
2024/04/04 07:10:45;;;;;;;;;;;14.70;99.90;;;;;;5064957;28;19973;-49
2024/04/04 07:13:15;;;;;;;;;;;14.70;99.90;;;;;;5068209;28;19938;-49
2024/04/04 07:15:41;;;;;;;;;;;14.70;99.90;;;;;;5065884;28;19972;-49
2024/04/04 07:18:12;;;;;;;;;;;14.70;99.90;;;;;;5056404;28;20418;-49
2024/04/04 07:20:39;;;;;;;;;;;14.70;99.90;;;;;;5059548;28;19919;-49
2024/04/04 07:23:05;;;;;;;;;;;14.70;99.90;;;;;;5060710;28;19916;-48
2024/04/04 07:25:31;;;;;;;;;;;14.70;99.90;;;;;;5067701;28;19950;-49
2024/04/04 07:27:57;;;;;;;;;;;14.70;99.90;;;;;;5061399;28;19916;-50
2024/04/04 07:30:22;;;;;;;;;;;14.70;99.90;;;;;;5063057;28;19915;-49
2024/04/04 07:32:48;;;;;;;;;;;14.70;99.90;;;;;;5061561;28;19934;-48
2024/04/04 07:35:14;;;;;;;;;;;14.70;99.90;;;;;;5071034;28;19920;-49
2024/04/04 07:37:39;;;;;;;;;;;14.70;99.90;;;;;;5070043;28;19912;-51
2024/04/04 07:40:05;;;;;;;;;;;14.70;99.90;;;;;;5069638;28;20383;-52
2024/04/04 07:42:31;;;;;;;;;;;14.70;99.90;;;;;;5067699;28;19909;-48
2024/04/04 07:44:56;;;;;;;;;;;14.70;99.90;;;;;;5069273;28;19915;-52
2024/04/04 07:47:22;;;;;;;;;;;14.70;99.90;;;;;;5066946;28;19920;-50
2024/04/04 07:49:47;;;;;;;;;;;14.70;99.90;;;;;;5070287;28;19912;-49
2024/04/04 07:52:13;;;;;;;;;;;14.70;99.90;;;;;;5069701;28;19913;-49
2024/04/04 07:54:39;;;;;;;;;;;14.70;99.90;;;;;;5071015;28;19912;-51
2024/04/04 07:57:05;;;;;;;;;;;14.70;99.90;;;;;;5070496;28;20378;-48
2024/04/04 07:59:31;;;;;;;;;;;14.70;99.90;;;;;;5068383;28;20303;-48
2024/04/04 08:01:56;;;;;;;;;;;14.70;99.90;;;;;;5071783;28;19909;-49
2024/04/04 08:04:22;;;;;;;;;;;14.70;99.90;;;;;;5071961;28;19962;-49
2024/04/04 08:06:47;;;;;;;;;;;14.80;99.90;;;;;;5068804;28;19923;-50
2024/04/04 08:09:13;;;;;;;;;;;14.70;99.90;;;;;;5067634;28;19976;-48
2024/04/04 08:11:38;;;;;;;;;;;14.70;99.90;;;;;;5069246;28;19912;-50
2024/04/04 08:14:04;;;;;;;;;;;14.70;99.90;;;;;;5070232;28;20002;-49
2024/04/04 08:16:33;;;;;;;;;;;14.80;99.90;;;;;;5067594;28;20308;-48
2024/04/04 08:18:58;;;;;;;;;;;14.80;99.90;;;;;;5056392;28;19920;-49
2024/04/04 08:21:24;;;;;;;;;;;14.80;99.90;;;;;;5069329;28;19919;-52
2024/04/04 08:23:49;;;;;;;;;;;14.80;99.90;;;;;;5071342;28;19912;-51
2024/04/04 08:26:16;;;;;;;;;;;14.80;99.90;;;;;;5068522;28;19916;-51
2024/04/04 08:28:41;;;;;;;;;;;14.80;99.90;;;;;;5064587;28;19916;-52
2024/04/04 08:31:07;;;;;;;;;;;14.80;99.90;;;;;;5067082;28;19977;-50
2024/04/04 08:33:33;;;;;;;;;;;14.80;99.90;;;;;;5070907;28;19965;-52
2024/04/04 08:35:59;;;;;;;;;;;14.80;99.90;;;;;;5070672;28;19913;-52
2024/04/04 08:38:25;;;;;;;;;;;14.80;99.90;;;;;;5069273;28;20326;-52
2024/04/04 08:40:55;;;;;;;;;;;14.80;99.90;;;;;;5069301;28;19909;-50
2024/04/04 08:43:21;;;;;;;;;;;14.80;99.90;;;;;;5069262;28;19916;-50
2024/04/04 08:45:47;;;;;;;;;;;14.80;99.90;;;;;;5073966;28;19908;-49
2024/04/04 08:48:14;;;;;;;;;;;14.80;99.90;;;;;;5077395;28;19924;-51
2024/04/04 08:50:45;;;;;;;;;;;14.90;99.90;;;;;;5077232;28;19954;-53
2024/04/04 08:53:12;;;;;;;;;;;14.90;99.90;;;;;;5077646;28;19918;-52
2024/04/04 08:55:38;;;;;;;;;;;14.80;99.90;;;;;;5077282;28;19973;-54
2024/04/04 08:58:03;;;;;;;;;;;14.80;99.90;;;;;;5077539;28;20296;-53
2024/04/04 09:00:29;;;;;;;;;;;14.80;99.90;;;;;;5075113;28;19912;-52
2024/04/04 09:02:54;;;;;;;;;;;14.90;99.90;;;;;;5076543;28;19919;-49
2024/04/04 09:05:20;;;;;;;;;;;14.90;99.90;;;;;;5076601;28;19919;-51
2024/04/04 09:07:45;;;;;;;;;;;14.90;99.90;;;;;;5076082;28;19908;-50
2024/04/04 09:10:14;;;;;;;;;;;14.90;99.90;;;;;;5076192;28;19908;-52
2024/04/04 09:12:40;;;;;;;;;;;14.90;99.90;;;;;;5077483;28;19990;-51
2024/04/04 09:15:06;;;;;;;;;;;14.90;99.90;;;;;;5076902;28;19974;-53
2024/04/04 09:17:31;;;;;;;;;;;14.90;99.90;;;;;;5077355;28;19923;-52
2024/04/04 09:19:57;;;;;;;;;;;14.90;99.90;;;;;;5076364;28;20291;-53
2024/04/04 09:22:23;;;;;;;;;;;14.90;99.90;;;;;;5076892;28;20298;-53
2024/04/04 09:24:49;;;;;;;;;;;14.90;99.90;;;;;;5076783;28;19915;-53
2024/04/04 09:27:18;;;;;;;;;;;14.80;99.90;;;;;;5076800;28;19918;-53
2024/04/04 09:29:44;;;;;;;;;;;14.90;99.90;;;;;;5075708;28;19912;-50
2024/04/04 09:32:10;;;;;;;;;;;14.90;99.90;;;;;;5074113;28;20435;-51
2024/04/04 09:34:36;;;;;;;;;;;14.90;99.90;;;;;;5075302;28;19976;-49
2024/04/04 09:37:04;;;;;;;;;;;14.90;99.90;;;;;;5068796;28;19917;-50
2024/04/04 09:39:30;;;;;;;;;;;14.90;99.90;;;;;;5068388;28;19923;-49
2024/04/04 09:41:57;;;;;;;;;;;14.90;99.90;;;;;;5075585;28;20376;-49
2024/04/04 09:44:22;;;;;;;;;;;14.90;99.90;;;;;;5070304;28;19955;-49
2024/04/04 09:46:48;;;;;;;;;;;14.90;99.90;;;;;;5069403;28;20501;-53
2024/04/04 09:49:13;;;;;;;;;;;14.90;99.90;;;;;;5065950;28;20419;-53
2024/04/04 09:51:42;;;;;;;;;;;14.90;99.90;;;;;;5070951;28;19913;-50
2024/04/04 09:54:09;;;;;;;;;;;14.90;99.90;;;;;;5064028;28;19920;-52
2024/04/04 09:56:35;;;;;;;;;;;14.90;99.90;;;;;;5069096;28;19985;-51
2024/04/04 09:59:01;;;;;;;;;;;15.00;99.90;;;;;;5066013;28;19916;-50
2024/04/04 10:01:26;;;;;;;;;;;15.00;99.90;;;;;;5063718;28;19940;-50
2024/04/04 10:03:52;;;;;;;;;;;15.00;99.90;;;;;;5064502;28;19913;-54
2024/04/04 10:06:26;;;;;;;;;;;15.00;99.90;;;;;;5067549;28;19909;-49
2024/04/04 10:08:52;;;;;;;;;;;15.00;99.90;;;;;;5066718;28;19917;-51
2024/04/04 10:11:26;;;;;;;;;;;15.00;99.90;;;;;;5068414;28;19915;-49
2024/04/04 10:13:54;;;;;;;;;;;15.00;99.90;;;;;;5068148;28;19963;-49
2024/04/04 10:16:35;;;;;;;;;;;15.00;99.90;;;;;;5075190;28;19920;-49
2024/04/04 10:19:20;;;;;;;;;;;15.00;99.90;;;;;;5074627;28;19984;-49
2024/04/04 10:21:46;;;;;;;;;;;15.00;99.90;;;;;;5074697;28;19909;-49
2024/04/04 10:24:32;;;;;;;;;;;15.00;99.90;;;;;;5075595;28;20391;-50
2024/04/04 10:27:02;;;;;;;;;;;15.00;99.90;;;;;;5075446;28;19908;-49
2024/04/04 10:29:30;;;;;;;;;;;15.00;99.90;;;;;;5075570;28;20383;-49
2024/04/04 10:31:56;;;;;;;;;;;15.00;99.90;;;;;;5075514;28;19908;-53
2024/04/04 10:34:21;;;;;;;;;;;15.00;99.90;;;;;;5070493;28;20026;-50
2024/04/04 10:36:47;;;;;;;;;;;15.00;99.90;;;;;;5067586;28;19912;-50
2024/04/04 10:39:13;;;;;;;;;;;15.00;99.90;;;;;;5067914;28;19908;-52
2024/04/04 10:41:39;;;;;;;;;;;15.00;99.90;;;;;;5066438;28;19912;-50
2024/04/04 10:44:09;;;;;;;;;;;15.00;99.90;;;;;;5068354;28;20256;-53
2024/04/04 10:46:55;;;;;;;;;;;15.00;99.90;;;;;;5067076;28;19909;-53
2024/04/04 10:49:27;;;;;;;;;;;15.00;99.90;;;;;;5067199;28;19912;-53
2024/04/04 10:51:54;;;;;;;;;;;15.00;99.90;;;;;;5066356;28;19959;-53
2024/04/04 10:54:19;;;;;;;;;;;15.00;99.90;;;;;;5070305;28;19959;-52
2024/04/04 10:56:46;;;;;;;;;;;15.00;99.90;;;;;;5068492;28;19909;-52
2024/04/04 10:59:12;;;;;;;;;;;15.00;99.90;;;;;;5070049;28;19982;-53
2024/04/04 11:01:37;;;;;;;;;;;15.00;99.90;;;;;;5066957;28;19909;-53
2024/04/04 11:04:03;;;;;;;;;;;15.00;99.90;;;;;;5062221;28;20757;-51
2024/04/04 11:06:29;;;;;;;;;;;15.00;99.90;;;;;;5060188;28;19924;-53
2024/04/04 11:08:55;;;;;;;;;;;15.00;99.90;;;;;;5067618;28;19912;-51
2024/04/04 11:11:21;;;;;;;;;;;15.10;99.90;;;;;;5066897;28;20165;-53
2024/04/04 11:13:48;;;;;;;;;;;15.10;99.90;;;;;;5070398;28;20000;-54
2024/04/04 11:16:14;;;;;;;;;;;15.10;99.90;;;;;;5066430;28;20012;-53
2024/04/04 11:18:40;;;;;;;;;;;15.10;99.90;;;;;;5065176;28;20071;-53
2024/04/04 11:21:07;;;;;;;;;;;15.10;99.90;;;;;;5060583;28;19912;-54
2024/04/04 11:23:33;;;;;;;;;;;15.10;99.90;;;;;;5067554;28;19916;-53
2024/04/04 11:25:59;;;;;;;;;;;15.10;99.90;;;;;;5069931;28;20023;-53
2024/04/04 11:28:25;;;;;;;;;;;15.10;99.90;;;;;;5061016;28;20016;-52
2024/04/04 11:30:51;;;;;;;;;;;15.10;99.90;;;;;;5064709;28;19948;-53
2024/04/04 11:33:17;;;;;;;;;;;15.10;99.90;;;;;;5073559;28;19913;-53
2024/04/04 11:35:44;;;;;;;;;;;15.10;99.90;;;;;;5065631;28;19998;-52
2024/04/04 11:38:09;;;;;;;;;;;15.10;99.90;;;;;;5067242;28;19924;-53
2024/04/04 11:40:35;;;;;;;;;;;15.20;99.90;;;;;;5065692;28;19913;-52
2024/04/04 11:43:00;;;;;;;;;;;15.20;99.90;;;;;;5068573;28;19919;-53
2024/04/04 11:45:26;;;;;;;;;;;15.20;99.90;;;;;;5065290;28;19977;-50
2024/04/04 11:47:51;;;;;;;;;;;15.20;99.90;;;;;;5063627;28;19916;-50
2024/04/04 11:50:17;;;;;;;;;;;15.20;99.90;;;;;;5064537;28;19931;-49
2024/04/04 11:52:46;;;;;;;;;;;15.20;99.90;;;;;;5074829;28;19991;-49
2024/04/04 11:55:11;;;;;;;;;;;15.20;99.90;;;;;;5068724;28;19913;-50
2024/04/04 11:57:37;;;;;;;;;;;15.20;99.90;;;;;;5069487;28;19908;-49
2024/04/04 12:00:04;;;;;;;;;;;15.20;99.90;;;;;;5065675;28;19970;-50
2024/04/04 12:02:29;;;;;;;;;;;15.20;99.90;;;;;;5063106;28;19923;-49
2024/04/04 12:04:55;;;;;;;;;;;15.20;99.90;;;;;;5073602;28;20364;-50
2024/04/04 12:07:21;;;;;;;;;;;15.30;99.90;;;;;;5068529;28;19952;-49
2024/04/04 12:09:46;;;;;;;;;;;15.20;99.90;;;;;;5064106;28;19966;-53
2024/04/04 12:12:14;;;;;;;;;;;15.20;99.90;;;;;;5068402;28;19931;-50
2024/04/04 12:14:40;;;;;;;;;;;15.20;99.90;;;;;;5066424;28;19917;-52
2024/04/04 12:17:05;;;;;;;;;;;15.20;99.90;;;;;;5068058;28;20586;-52
2024/04/04 12:19:31;;;;;;;;;;;15.20;99.90;;;;;;5068018;28;19943;-49
2024/04/04 12:21:56;;;;;;;;;;;15.20;99.90;;;;;;5069483;28;19923;-50
2024/04/04 12:24:22;;;;;;;;;;;15.30;99.90;;;;;;5075135;28;19951;-50
2024/04/04 12:26:50;;;;;;;;;;;15.30;99.90;;;;;;5075598;28;19912;-50
2024/04/04 12:29:16;;;;;;;;;;;15.30;99.90;;;;;;5072420;28;19927;-49
2024/04/04 12:31:42;;;;;;;;;;;15.30;99.90;;;;;;5068622;28;19967;-50
2024/04/04 12:34:08;;;;;;;;;;;15.30;99.90;;;;;;5069900;28;19973;-49
2024/04/04 12:36:33;;;;;;;;;;;15.30;99.90;;;;;;5071067;28;19967;-50
2024/04/04 12:39:00;;;;;;;;;;;15.30;99.90;;;;;;5068177;28;19959;-50
2024/04/04 12:41:26;;;;;;;;;;;15.30;99.90;;;;;;5070271;28;19913;-50
2024/04/04 12:43:52;;;;;;;;;;;15.30;99.90;;;;;;5070004;28;19955;-49
2024/04/04 12:46:18;;;;;;;;;;;15.30;99.90;;;;;;5069847;28;19966;-50
2024/04/04 12:48:46;;;;;;;;;;;15.30;99.90;;;;;;5075189;28;19917;-49
2024/04/04 12:51:11;;;;;;;;;;;15.40;99.90;;;;;;5076981;28;19912;-53
2024/04/04 12:53:37;;;;;;;;;;;15.30;99.90;;;;;;5076688;28;19913;-51
2024/04/04 12:56:03;;;;;;;;;;;15.40;99.90;;;;;;5070470;28;19993;-51
2024/04/04 12:58:29;;;;;;;;;;;15.40;99.90;;;;;;5073338;28;19923;-49
2024/04/04 13:00:58;;;;;;;;;;;15.40;99.90;;;;;;5072905;28;20376;-49
2024/04/04 13:03:27;;;;;;;;;;;15.40;99.90;;;;;;5074903;28;19915;-50
2024/04/04 13:05:55;;;;;;;;;;;15.40;99.90;;;;;;5073923;28;20031;-49
2024/04/04 13:08:21;;;;;;;;;;;15.40;99.90;;;;;;5076608;28;19971;-49
2024/04/04 13:10:46;;;;;;;;;;;15.40;99.90;;;;;;5074691;28;19939;-48
2024/04/04 13:13:12;;;;;;;;;;;15.40;99.90;;;;;;5075787;28;19912;-48
2024/04/04 13:15:38;;;;;;;;;;;15.40;99.90;;;;;;5076324;28;20291;-49
2024/04/04 13:18:04;;;;;;;;;;;15.40;99.90;;;;;;5063043;28;19921;-48
2024/04/04 13:20:29;;;;;;;;;;;15.40;99.90;;;;;;5080806;28;19912;-49
2024/04/04 13:22:55;;;;;;;;;;;15.40;99.90;;;;;;5058552;28;19920;-48
2024/04/04 13:25:20;;;;;;;;;;;15.40;99.90;;;;;;5075774;28;19908;-49
2024/04/04 13:27:46;;;;;;;;;;;15.40;99.90;;;;;;5066787;28;19919;-49
2024/04/04 13:30:11;;;;;;;;;;;15.40;99.90;;;;;;5074855;28;19913;-49
2024/04/04 13:32:37;;;;;;;;;;;15.40;99.90;;;;;;5068573;28;19926;-48
2024/04/04 13:35:03;;;;;;;;;;;15.40;99.90;;;;;;5074090;28;20473;-49
2024/04/04 13:37:28;;;;;;;;;;;15.40;99.90;;;;;;5074979;28;19916;-49
2024/04/04 13:39:54;;;;;;;;;;;15.40;99.90;;;;;;5073811;28;19923;-49
2024/04/04 13:42:21;;;;;;;;;;;15.30;99.90;;;;;;5073513;28;19923;-48
2024/04/04 13:44:49;;;;;;;;;;;15.40;99.90;;;;;;5072774;28;20299;-49
2024/04/04 13:47:15;;;;;;;;;;;15.40;99.90;;;;;;5066157;28;19979;-48
2024/04/04 13:49:40;;;;;;;;;;;15.40;99.90;;;;;;5068106;28;20398;-49
2024/04/04 13:52:06;;;;;;;;;;;15.40;99.90;;;;;;5065078;28;19969;-48
2024/04/04 13:54:31;;;;;;;;;;;15.40;99.90;;;;;;5075870;28;20406;-50
2024/04/04 13:56:57;;;;;;;;;;;15.40;99.90;;;;;;5075273;28;20275;-48
2024/04/04 13:59:23;;;;;;;;;;;15.40;99.90;;;;;;5075541;28;20287;-49
2024/04/04 14:01:48;;;;;;;;;;;15.40;99.90;;;;;;5075139;28;19915;-48
2024/04/04 14:04:14;;;;;;;;;;;15.40;99.90;;;;;;5075489;28;20383;-49
2024/04/04 14:06:42;;;;;;;;;;;15.40;99.90;;;;;;5074788;28;19913;-48
2024/04/04 14:09:08;;;;;;;;;;;15.40;99.90;;;;;;5074455;28;19912;-49
2024/04/04 14:11:34;;;;;;;;;;;15.40;99.90;;;;;;5075214;28;19909;-49